Time;durP1;ratioP1;P1;durP2;ratioP2;P2;SDS_P1;SDS_P2;PMS_P1;PMS_P2;Temp;Humidity;BMP_temperature;BMP_pressure;BME280_temperature;BME280_humidity;BME280_pressure;Samples;Min_cycle;Max_cycle;Signal;HPM_P1;HPM_P2
2022/01/13 00:01:28;;;;;;;25.27;9.30;;;;;;;-8.71;64.28;102248.08;126340;1099;104146;-79
2022/01/13 00:04:00;;;;;;;26.17;7.83;;;;;;;-8.72;63.33;102263.13;126348;1099;104178;-80
2022/01/13 00:06:31;;;;;;;23.20;8.33;;;;;;;-8.74;64.67;102259.42;126364;1099;104146;-80
2022/01/13 00:09:03;;;;;;;23.03;9.13;;;;;;;-8.75;63.08;102273.79;126255;1099;104149;-80
2022/01/13 00:11:35;;;;;;;28.27;9.57;;;;;;;-8.73;62.92;102261.28;126326;1099;104223;-80
2022/01/13 00:17:12;;;;;;;25.53;9.60;;;;;;;-8.73;63.04;102264.73;126286;1098;104194;-80
2022/01/13 00:19:57;;;;;;;23.03;7.60;;;;;;;-8.74;63.87;102261.97;126301;1099;104149;-80
2022/01/13 00:22:46;;;;;;;27.87;9.13;;;;;;;-8.74;63.58;102268.00;126307;1096;104248;-80
2022/01/13 00:25:19;;;;;;;25.97;9.33;;;;;;;-8.74;64.15;102270.55;126366;1099;104144;-80
2022/01/13 00:27:55;;;;;;;25.02;9.53;;;;;;;-8.74;63.52;102278.19;126339;1099;104255;-80
2022/01/13 00:30:31;;;;;;;27.50;9.53;;;;;;;-8.74;63.66;102274.70;126306;1099;104245;-80
2022/01/13 00:33:02;;;;;;;27.33;10.10;;;;;;;-8.74;63.28;102272.16;126361;1099;104146;-80
2022/01/13 00:35:35;;;;;;;24.67;8.37;;;;;;;-8.74;64.42;102261.97;126354;1099;104146;-80
2022/01/13 00:38:06;;;;;;;25.03;9.43;;;;;;;-8.73;64.79;102269.83;126329;1098;104143;-80
2022/01/13 00:40:37;;;;;;;27.07;9.37;;;;;;;-8.75;64.64;102276.34;126287;1099;104195;-80
2022/01/13 00:43:09;;;;;;;26.13;8.80;;;;;;;-8.74;64.93;102270.55;126382;1099;104143;-80
2022/01/13 00:45:40;;;;;;;24.20;8.87;;;;;;;-8.77;64.97;102279.36;126345;1099;104325;-80
2022/01/13 00:48:11;;;;;;;29.73;9.83;;;;;;;-8.76;64.27;102274.48;126309;1097;104262;-80
2022/01/13 00:50:43;;;;;;;28.07;10.43;;;;;;;-8.76;64.27;102273.58;126299;1099;104156;-80
2022/01/13 00:53:16;;;;;;;26.77;9.63;;;;;;;-8.78;63.61;102270.81;126343;1099;104181;-80
2022/01/13 00:55:57;;;;;;;29.33;10.63;;;;;;;-8.79;64.39;102266.42;126353;1099;104168;-80
2022/01/13 00:58:33;;;;;;;27.70;9.20;;;;;;;-8.79;64.95;102274.05;126318;1098;104438;-80
2022/01/13 01:01:06;;;;;;;27.17;9.47;;;;;;;-8.78;63.67;102278.45;126295;1099;104179;-80
2022/01/13 01:03:38;;;;;;;26.60;10.87;;;;;;;-8.78;64.91;102270.81;126374;1099;104634;-80
2022/01/13 01:06:10;;;;;;;22.93;8.73;;;;;;;-8.78;65.10;102273.36;126351;1099;104153;-80
2022/01/13 01:08:42;;;;;;;26.37;9.83;;;;;;;-8.80;64.25;102272.23;126318;1099;104178;-80
2022/01/13 01:11:14;;;;;;;26.17;9.50;;;;;;;-8.81;64.44;102274.56;126303;1099;104296;-80
2022/01/13 01:13:48;;;;;;;24.60;8.80;;;;;;;-8.82;64.93;102258.35;126287;1099;104299;-80
2022/01/13 01:16:20;;;;;;;24.70;9.17;;;;;;;-8.82;65.37;102259.98;126322;1099;104242;-80
2022/01/13 01:18:59;;;;;;;28.20;10.35;;;;;;;-8.83;64.02;102261.63;126346;1099;104201;-80
2022/01/13 01:22:02;;;;;;;27.83;10.50;;;;;;;-8.82;63.50;102259.98;126255;1099;104220;-80
2022/01/13 01:27:41;;;;;;;29.07;10.93;;;;;;;-8.80;65.02;102238.20;126362;1099;104220;-80
2022/01/13 01:30:24;;;;;;;30.13;9.87;;;;;;;-8.80;64.50;102238.20;126287;1099;104179;-80
2022/01/13 01:32:55;;;;;;;28.90;10.23;;;;;;;-8.81;65.08;102242.39;126298;1099;109349;-80
2022/01/13 01:35:28;;;;;;;23.87;10.30;;;;;;;-8.83;63.74;102238.73;126345;1099;104139;-80
2022/01/13 01:38:00;;;;;;;31.60;10.40;;;;;;;-8.81;63.85;102252.57;126290;1097;104163;-80
2022/01/13 01:40:32;;;;;;;30.45;11.70;;;;;;;-8.81;64.38;102249.12;126324;1099;104222;-80
2022/01/13 01:43:03;;;;;;;29.03;11.23;;;;;;;-8.78;63.87;102241.91;126323;1098;104146;-80
2022/01/13 01:45:43;;;;;;;29.30;10.00;;;;;;;-8.78;64.12;102244.45;126349;1099;104258;-80
2022/01/13 01:48:19;;;;;;;29.30;10.37;;;;;;;-8.78;64.44;102244.45;126393;1099;104242;-80
2022/01/13 01:50:58;;;;;;;31.23;11.97;;;;;;;-8.77;64.79;102247.22;126318;1099;104307;-80
2022/01/13 01:53:29;;;;;;;30.20;11.57;;;;;;;-8.73;63.92;102243.47;126309;1099;107028;-80
2022/01/13 01:56:01;;;;;;;30.47;12.07;;;;;;;-8.71;63.73;102236.95;126344;1099;105154;-80
2022/01/13 01:58:37;;;;;;;31.90;11.67;;;;;;;-8.71;64.37;102232.80;126361;1099;104258;-80
2022/01/13 02:01:08;;;;;;;29.00;11.50;;;;;;;-8.67;64.52;102229.96;126334;1099;102796;-80
2022/01/13 02:03:41;;;;;;;30.60;11.90;;;;;;;-8.65;63.26;102234.36;126314;1099;104319;-80
2022/01/13 02:06:13;;;;;;;29.23;11.08;;;;;;;-8.65;64.99;102232.72;126322;1099;104175;-80
2022/01/13 02:08:44;;;;;;;25.47;10.17;;;;;;;-8.68;63.38;102229.75;126379;1099;104464;-80
2022/01/13 02:11:16;;;;;;;28.33;11.27;;;;;;;-8.73;64.46;102229.10;126339;1099;104136;-80
2022/01/13 02:13:54;;;;;;;32.83;11.73;;;;;;;-8.81;64.97;102234.76;126289;1099;104631;-80
2022/01/13 02:16:38;;;;;;;30.37;11.93;;;;;;;-8.85;63.53;102232.48;126289;1099;103010;-80
2022/01/13 02:19:11;;;;;;;32.85;12.47;;;;;;;-8.84;63.71;102231.78;126319;1099;104146;-80
2022/01/13 02:21:42;;;;;;;27.83;11.03;;;;;;;-8.82;63.75;102247.27;126351;1098;104149;-80
2022/01/13 02:24:13;;;;;;;30.75;10.85;;;;;;;-8.78;63.42;102258.09;126355;1099;109433;-78
2022/01/13 02:26:51;;;;;;;34.27;12.67;;;;;;;-8.76;63.72;102241.40;126352;1099;104596;-78
2022/01/13 02:29:24;;;;;;;27.63;10.80;;;;;;;-8.75;64.60;102245.80;126365;1099;104150;-78
2022/01/13 02:31:55;;;;;;;31.13;11.73;;;;;;;-8.76;63.21;102246.48;126289;1099;104248;-78
2022/01/13 02:34:27;;;;;;;28.00;10.30;;;;;;;-8.78;63.69;102245.36;126346;1099;104150;-78
2022/01/13 02:36:59;;;;;;;33.07;12.13;;;;;;;-8.79;63.62;102242.61;126366;1099;104121;-79
2022/01/13 02:39:30;;;;;;;26.70;10.53;;;;;;;-8.82;63.59;102237.09;126332;1099;104149;-78
2022/01/13 02:42:12;;;;;;;29.87;11.43;;;;;;;-8.86;65.03;102240.84;126361;1099;104270;-79
2022/01/13 02:44:50;;;;;;;31.07;11.40;;;;;;;-8.89;65.15;102250.59;126272;1099;108902;-78
2022/01/13 02:47:35;;;;;;;35.50;12.83;;;;;;;-8.93;65.52;102253.39;126371;1099;104150;-79
2022/01/13 02:50:05;;;;;;;;;;;;;;;-8.99;66.17;102258.55;126374;1098;104166;-78
2022/01/13 02:52:37;;;;;;;34.30;12.13;;;;;;;-9.05;65.38;102247.52;126319;1099;104137;-78
2022/01/13 02:55:10;;;;;;;34.70;12.80;;;;;;;-9.08;65.93;102245.45;126324;1099;119005;-78
2022/01/13 02:57:42;;;;;;;26.42;10.72;;;;;;;-9.12;64.87;102249.88;126337;1099;104137;-78
2022/01/13 03:00:18;;;;;;;27.40;10.37;;;;;;;-9.14;66.45;102257.30;126349;1099;104150;-78
2022/01/13 03:02:49;;;;;;;32.13;12.47;;;;;;;-9.15;65.64;102259.63;126347;1099;104162;-78
2022/01/13 03:05:20;;;;;;;30.97;11.83;;;;;;;-9.17;65.64;102251.78;126330;1099;104169;-78
2022/01/13 03:07:53;;;;;;;36.97;13.47;;;;;;;-9.18;66.15;102252.47;126356;1099;104328;-78
2022/01/13 03:10:24;;;;;;;39.27;15.27;;;;;;;-9.20;65.92;102240.27;126324;1099;104162;-78
2022/01/13 03:12:57;;;;;;;36.23;12.90;;;;;;;-9.21;66.36;102252.03;126327;1099;104139;-79
2022/01/13 03:15:28;;;;;;;35.50;13.17;;;;;;;-9.22;67.10;102255.30;126314;1099;104190;-78
2022/01/13 03:18:00;;;;;;;35.73;13.13;;;;;;;-9.23;67.30;102261.08;126341;1099;104143;-79
2022/01/13 03:20:33;;;;;;;37.50;12.83;;;;;;;-9.25;66.46;102255.77;126363;1099;104338;-78
2022/01/13 03:23:05;;;;;;;33.70;13.40;;;;;;;-9.27;66.27;102253.70;126350;1099;104195;-78
2022/01/13 03:25:36;;;;;;;35.57;13.03;;;;;;;-9.29;67.62;102257.66;126291;1099;104255;-78
2022/01/13 03:28:14;;;;;;;33.10;11.93;;;;;;;-9.30;67.63;102254.22;126340;1099;104188;-79
2022/01/13 03:30:46;;;;;;;34.33;13.73;;;;;;;-9.30;67.58;102259.30;126373;1099;104595;-79
2022/01/13 03:33:17;;;;;;;35.63;12.17;;;;;;;-9.31;68.54;102256.53;126338;1099;104268;-79
2022/01/13 03:35:49;;;;;;;34.17;13.47;;;;;;;-9.32;66.46;102252.14;126157;1099;108073;-79
2022/01/13 03:38:20;;;;;;;36.30;13.60;;;;;;;-9.30;66.86;102253.27;126141;1099;104188;-79
2022/01/13 03:40:51;;;;;;;37.67;11.67;;;;;;;-9.31;68.50;102266.70;126137;1099;104175;-79
2022/01/13 03:43:23;;;;;;;35.43;13.57;;;;;;;-9.29;67.20;102262.75;126324;1099;104210;-80
2022/01/13 03:45:54;;;;;;;33.37;12.47;;;;;;;-9.27;68.17;102247.02;126313;1099;104220;-79
2022/01/13 03:48:26;;;;;;;37.37;13.40;;;;;;;-9.25;67.29;102243.06;126323;1099;104172;-79
2022/01/13 03:50:57;;;;;;;36.10;14.67;;;;;;;-9.23;67.58;102243.28;126214;1098;104165;-79
2022/01/13 03:54:14;;;;;;;38.00;14.13;;;;;;;-9.22;67.13;102243.50;126063;1099;104160;-79
2022/01/13 03:57:48;;;;;;;35.17;12.87;;;;;;;-9.19;66.56;102250.65;126093;1099;104188;-79
2022/01/13 04:01:02;;;;;;;39.43;13.03;;;;;;;-9.17;68.31;102241.60;126054;1099;104217;-79
2022/01/13 04:03:34;;;;;;;38.00;14.15;;;;;;;-9.17;67.39;102235.61;126017;1099;104150;-79
2022/01/13 04:06:29;;;;;;;35.17;14.33;;;;;;;-9.17;67.21;102231.44;125882;1099;104169;-79
2022/01/13 04:09:04;;;;;;;35.93;14.07;;;;;;;-9.15;68.30;102234.20;125873;1099;104257;-79
2022/01/13 04:11:36;;;;;;;37.17;13.90;;;;;;;-9.15;67.78;102235.10;126076;1099;104175;-79
2022/01/13 04:14:10;;;;;;;35.03;14.33;;;;;;;-9.14;67.50;102231.87;126028;1099;104194;-79
2022/01/13 04:16:43;;;;;;;36.42;15.00;;;;;;;-9.14;67.04;102229.33;126047;1097;104147;-79
2022/01/13 04:19:14;;;;;;;33.90;13.73;;;;;;;-9.13;68.24;102225.14;126179;1098;104223;-80
2022/01/13 04:21:46;;;;;;;37.27;15.07;;;;;;;-9.14;67.83;102225.88;126327;1099;104242;-79
2022/01/13 04:24:19;;;;;;;38.40;14.20;;;;;;;-9.16;67.17;102234.88;126317;1099;104150;-79
2022/01/13 04:26:53;;;;;;;40.50;16.10;;;;;;;-9.18;67.70;102229.58;126281;1097;104194;-79
2022/01/13 04:29:33;;;;;;;45.00;16.53;;;;;;;-9.18;67.54;102236.30;126298;1099;104188;-78
2022/01/13 04:32:06;;;;;;;43.33;16.23;;;;;;;-9.19;67.31;102231.91;126330;1099;104140;-79
2022/01/13 04:34:37;;;;;;;41.87;15.80;;;;;;;-9.19;67.23;102239.53;126247;1097;104213;-79
2022/01/13 04:37:09;;;;;;;40.83;14.80;;;;;;;-9.20;66.56;102237.72;126301;1099;104160;-79
2022/01/13 04:39:40;;;;;;;43.57;16.70;;;;;;;-9.22;66.52;102227.33;126336;1099;104193;-79
2022/01/13 04:42:13;;;;;;;41.10;16.53;;;;;;;-9.24;66.54;102229.66;126292;1099;104198;-79
2022/01/13 04:44:47;;;;;;;38.47;15.13;;;;;;;-9.27;67.14;102221.59;126346;1099;104157;-79
2022/01/13 04:47:18;;;;;;;41.07;18.13;;;;;;;-9.28;66.29;102222.28;126253;1099;104169;-79
2022/01/13 04:49:50;;;;;;;40.83;16.53;;;;;;;-9.27;66.45;102224.14;126375;1099;104628;-79
2022/01/13 04:52:21;;;;;;;42.00;14.77;;;;;;;-9.25;66.48;102226.90;126341;1099;104300;-79
2022/01/13 04:54:52;;;;;;;44.30;16.27;;;;;;;-9.25;67.24;102234.52;126313;1099;104252;-79
2022/01/13 04:57:24;;;;;;;39.10;15.10;;;;;;;-9.24;67.14;102242.38;126109;1099;104224;-79
2022/01/13 04:59:56;;;;;;;40.23;16.03;;;;;;;-9.22;67.24;102237.50;126157;1099;104216;-79
2022/01/13 05:02:29;;;;;;;39.97;15.80;;;;;;;-9.21;67.50;102239.31;126212;1099;104331;-79
2022/01/13 05:05:00;;;;;;;42.57;15.50;;;;;;;-9.21;67.02;102244.41;126325;1099;104175;-79
2022/01/13 05:07:32;;;;;;;37.50;15.93;;;;;;;-9.21;66.79;102241.86;126211;1099;104188;-79
2022/01/13 05:10:03;;;;;;;44.27;17.17;;;;;;;-9.18;67.19;102241.39;126321;1099;104210;-79
2022/01/13 05:12:40;;;;;;;40.00;16.05;;;;;;;-9.17;66.99;102241.60;126186;1099;104159;-79
2022/01/13 05:15:18;;;;;;;44.80;17.13;;;;;;;-9.13;66.04;102248.98;126090;1099;104270;-79
2022/01/13 05:20:46;;;;;;;41.80;16.60;;;;;;;-9.08;67.12;102242.91;126040;1099;104255;-80
2022/01/13 05:23:18;;;;;;;41.90;15.67;;;;;;;-9.05;66.39;102235.70;126117;1099;104570;-80
2022/01/13 05:25:50;;;;;;;41.13;15.90;;;;;;;-9.04;66.61;102240.11;126054;1099;104182;-80
2022/01/13 05:28:22;;;;;;;39.90;14.50;;;;;;;-9.00;66.55;102243.98;126114;1099;104258;-80
2022/01/13 05:30:53;;;;;;;39.43;16.33;;;;;;;-8.98;67.26;102240.02;126294;1099;104287;-80
2022/01/13 05:33:25;;;;;;;47.23;16.13;;;;;;;-8.96;67.35;102237.70;126257;1099;104598;-80
2022/01/13 05:35:56;;;;;;;44.33;16.93;;;;;;;-8.95;67.53;102239.55;126349;1098;101729;-80
2022/01/13 05:38:28;;;;;;;37.30;14.90;;;;;;;-8.95;67.52;102244.64;126279;1097;104133;-80
2022/01/13 05:40:59;;;;;;;41.63;16.73;;;;;;;-8.96;67.08;102245.33;126352;1099;104242;-80
2022/01/13 05:43:30;;;;;;;41.13;16.67;;;;;;;-8.95;67.00;102249.72;125995;1099;104338;-81
2022/01/13 05:46:02;;;;;;;42.70;16.77;;;;;;;-8.98;66.86;102240.02;125975;1098;104226;-80
2022/01/13 05:48:35;;;;;;;39.43;15.47;;;;;;;-9.00;67.22;102249.08;125798;1099;104272;-81
2022/01/13 05:51:09;;;;;;;41.87;17.23;;;;;;;-9.00;67.99;102249.08;126016;1099;104223;-81
2022/01/13 05:53:41;;;;;;;44.03;17.50;;;;;;;-8.99;67.32;102252.52;126189;1099;104191;-81
2022/01/13 05:56:13;;;;;;;46.30;17.77;;;;;;;-8.97;66.55;102248.59;126055;1099;104150;-81
2022/01/13 05:58:48;;;;;;;40.70;17.80;;;;;;;-8.92;66.96;102239.98;125989;1099;105620;-80
2022/01/13 06:01:22;;;;;;;36.90;15.27;;;;;;;-8.89;67.60;102240.41;125955;1099;104174;-80
2022/01/13 06:03:54;;;;;;;41.77;17.53;;;;;;;-8.84;67.28;102225.79;126038;1099;104193;-80
2022/01/13 06:06:27;;;;;;;47.00;18.60;;;;;;;-8.79;66.80;102219.70;125929;1099;102138;-80
2022/01/13 06:08:58;;;;;;;;;;;;;;;-8.73;66.48;102230.73;125934;1099;104172;-80
2022/01/13 06:11:37;;;;;;;41.53;16.00;;;;;;;-8.71;67.72;102235.35;125903;1099;104188;-81
2022/01/13 06:14:11;;;;;;;38.07;15.43;;;;;;;-8.69;67.48;102245.74;126046;1099;104252;-81
2022/01/13 06:16:47;;;;;;;43.95;17.35;;;;;;;-8.67;67.23;102250.32;125981;1099;104271;-81
2022/01/13 06:19:20;;;;;;;42.80;16.77;;;;;;;-8.60;66.60;102236.84;125920;1099;104201;-81
2022/01/13 06:21:58;;;;;;;43.83;17.87;;;;;;;-8.54;66.63;102224.97;125804;1099;104128;-80
2022/01/13 06:24:34;;;;;;;46.03;18.67;;;;;;;-8.45;66.79;102227.85;125797;1099;104175;-80
2022/01/13 06:27:10;;;;;;;70.70;19.17;;;;;;;-8.34;67.31;102227.66;125813;1099;104169;-79
2022/01/13 06:29:40;;;;;;;;;;;;;;;-8.27;67.74;102234.55;125798;1097;104188;-78
2022/01/13 06:32:11;;;;;;;36.93;15.20;;;;;;;-8.22;67.20;102235.17;125854;1099;104191;-79
2022/01/13 06:34:43;;;;;;;55.80;19.90;;;;;;;-8.16;67.57;102226.74;125876;1099;104223;-79
2022/01/13 06:37:15;;;;;;;48.00;19.53;;;;;;;-8.05;67.37;102202.73;125985;1099;104169;-78
2022/01/13 06:39:49;;;;;;;47.23;19.33;;;;;;;-7.94;68.21;102206.75;126216;1098;104297;-78
2022/01/13 06:42:23;;;;;;;45.03;19.23;;;;;;;-7.85;67.50;102200.36;126241;1099;104262;-80
2022/01/13 06:44:58;;;;;;;50.30;19.83;;;;;;;-7.74;66.55;102201.81;126278;1099;104264;-81
2022/01/13 06:47:36;;;;;;;48.70;19.27;;;;;;;-7.62;67.07;102200.92;126096;1099;104310;-79
2022/01/13 06:50:09;;;;;;;55.80;19.33;;;;;;;-7.46;66.65;102190.23;125952;1096;104194;-78
2022/01/13 06:52:44;;;;;;;51.50;19.93;;;;;;;-7.33;67.04;102187.69;125810;1099;105058;-79
2022/01/13 06:55:16;;;;;;;54.67;20.60;;;;;;;-7.25;66.64;102190.52;125662;1099;104137;-79
2022/01/13 06:57:47;;;;;;;48.57;19.73;;;;;;;-7.09;68.14;102179.80;125764;1098;102849;-78
2022/01/13 07:00:23;;;;;;;38.73;16.37;;;;;;;-6.99;67.94;102165.00;125844;1099;104255;-79
2022/01/13 07:02:58;;;;;;;44.97;19.87;;;;;;;-6.92;67.40;102166.72;125865;1099;104143;-80
2022/01/13 07:05:33;;;;;;;51.93;20.40;;;;;;;-6.87;67.72;102152.95;125817;1099;104297;-79
2022/01/13 07:08:11;;;;;;;40.30;16.25;;;;;;;-6.82;67.07;102167.22;125681;1099;104143;-78
2022/01/13 07:10:45;;;;;;;40.13;17.37;;;;;;;-6.79;67.52;102172.73;125952;1099;104210;-80
2022/01/13 07:13:21;;;;;;;41.70;17.60;;;;;;;-6.72;67.12;102174.44;126037;1099;104178;-79
2022/01/13 07:15:55;;;;;;;44.60;18.73;;;;;;;-6.68;68.04;102179.25;125844;1099;104246;-78
2022/01/13 07:18:27;;;;;;;41.15;16.55;;;;;;;-6.64;67.39;102176.35;125853;1099;104230;-78
2022/01/13 07:21:01;;;;;;;40.20;16.97;;;;;;;-6.61;68.16;102180.95;125763;1099;110177;-78
2022/01/13 07:23:33;;;;;;;42.30;17.40;;;;;;;-6.62;67.41;102182.59;125959;1099;104176;-79
2022/01/13 07:26:05;;;;;;;45.67;17.87;;;;;;;-6.62;67.62;102179.10;125798;1099;104328;-79
2022/01/13 07:28:39;;;;;;;43.87;16.97;;;;;;;-6.62;67.26;102181.66;125897;1099;104161;-80
2022/01/13 07:31:14;;;;;;;44.73;18.57;;;;;;;-6.60;67.39;102191.37;125760;1099;104204;-79
2022/01/13 07:33:51;;;;;;;49.97;19.10;;;;;;;-6.56;67.73;102197.78;125782;1099;104267;-80
2022/01/13 07:36:24;;;;;;;47.03;18.90;;;;;;;-6.49;68.05;102190.22;125825;1099;104178;-79
2022/01/13 07:39:02;;;;;;;46.53;19.27;;;;;;;-6.42;67.36;102189.37;125786;1099;104153;-79
2022/01/13 07:41:42;;;;;;;54.53;19.32;;;;;;;-6.34;68.04;102188.75;125672;1099;107652;-78
2022/01/13 07:44:17;;;;;;;53.87;20.77;;;;;;;-6.28;67.37;102192.06;125523;1099;104246;-78
2022/01/13 07:46:49;;;;;;;45.63;19.57;;;;;;;-6.22;67.10;102192.86;125662;1099;104251;-79
2022/01/13 07:49:22;;;;;;;49.37;20.80;;;;;;;-6.16;68.11;102203.88;125900;1099;104153;-77
2022/01/13 07:51:55;;;;;;;50.17;21.30;;;;;;;-6.08;67.72;102214.18;125975;1099;120038;-79
2022/01/13 07:54:30;;;;;;;42.13;18.40;;;;;;;-6.03;68.23;102221.73;126073;1096;104230;-78
2022/01/13 07:57:01;;;;;;;45.40;19.37;;;;;;;-5.96;67.33;102218.28;125775;1099;104175;-79
2022/01/13 07:59:33;;;;;;;45.23;18.53;;;;;;;-5.90;67.61;102224.19;125975;1099;104137;-77
2022/01/13 08:02:06;;;;;;;47.77;19.67;;;;;;;-5.81;67.63;102215.14;125913;1099;104245;-81
2022/01/13 08:07:29;;;;;;;44.07;18.83;;;;;;;-5.62;68.20;102220.95;125876;1099;104169;-79
2022/01/13 08:10:01;;;;;;;39.47;16.60;;;;;;;-5.56;67.65;102213.16;125814;1099;104143;-78
2022/01/13 08:12:36;;;;;;;37.97;15.97;;;;;;;-5.50;67.84;102213.94;126000;1099;111157;-80
2022/01/13 08:15:14;;;;;;;37.67;15.30;;;;;;;-5.44;67.83;102207.05;125927;1099;104172;-79
2022/01/13 08:20:44;;;;;;;35.10;13.97;;;;;;;-5.27;67.81;102208.23;125975;1099;104242;-77
2022/01/13 08:23:16;;;;;;;35.63;14.53;;;;;;;-5.18;67.89;102219.63;126173;1099;104171;-79
2022/01/13 08:25:51;;;;;;;38.67;16.00;;;;;;;-5.11;68.10;102201.77;126072;1099;104213;-78
2022/01/13 08:28:30;;;;;;;36.37;13.67;;;;;;;-5.03;67.86;102217.14;125940;1099;104576;-79
2022/01/13 08:31:04;;;;;;;34.63;14.87;;;;;;;-4.97;67.71;102215.36;125931;1099;104412;-79
2022/01/13 08:33:44;;;;;;;;;;;;;;;-4.91;67.63;102205.88;125969;1099;104188;-79
2022/01/13 08:36:16;;;;;;;31.47;13.30;;;;;;;-4.86;67.67;102184.34;125972;1099;104277;-79
2022/01/13 08:38:49;;;;;;;42.23;13.53;;;;;;;-4.79;67.35;102180.89;125913;1099;104136;-80
2022/01/13 08:41:25;;;;;;;36.27;14.40;;;;;;;-4.74;67.58;102165.34;125835;1099;104271;-79
2022/01/13 08:43:57;;;;;;;31.57;13.65;;;;;;;-4.64;67.85;102161.34;126089;1098;104117;-79
2022/01/13 08:46:29;;;;;;;37.30;15.20;;;;;;;-4.56;67.50;102173.47;125830;1099;104211;-80
2022/01/13 08:49:04;;;;;;;37.90;15.37;;;;;;;-4.50;67.50;102169.09;125536;1099;104845;-79
2022/01/13 08:51:36;;;;;;;38.97;15.03;;;;;;;-4.45;67.07;102164.53;125833;1099;104149;-78
2022/01/13 08:54:10;;;;;;;34.60;14.33;;;;;;;-4.42;67.18;102165.81;125802;1099;104192;-78
2022/01/13 08:56:46;;;;;;;35.53;15.97;;;;;;;-4.41;66.83;102157.41;125846;1099;104236;-78
2022/01/13 08:59:19;;;;;;;33.33;13.93;;;;;;;-4.39;66.77;102135.44;125864;1099;104191;-79
2022/01/13 09:01:51;;;;;;;38.47;14.80;;;;;;;-4.32;66.73;102143.87;125892;1099;104181;-78
2022/01/13 09:04:24;;;;;;;33.40;14.30;;;;;;;-4.25;66.43;102136.20;126116;1099;104215;-77
2022/01/13 09:06:59;;;;;;;32.83;12.60;;;;;;;-4.20;65.95;102123.19;126158;1099;104152;-78
2022/01/13 09:09:32;;;;;;;34.63;15.03;;;;;;;-4.18;66.71;102115.68;125961;1099;104370;-79
2022/01/13 09:12:07;;;;;;;37.83;16.03;;;;;;;-4.14;66.81;102107.64;125885;1099;104335;-79
2022/01/13 09:14:42;;;;;;;35.23;13.43;;;;;;;-4.09;66.60;102098.84;125941;1098;104159;-79
2022/01/13 09:17:22;;;;;;;39.37;15.63;;;;;;;-4.06;66.56;102098.30;126058;1099;104153;-78
2022/01/13 09:19:54;;;;;;;39.60;15.97;;;;;;;-4.01;66.49;102076.67;125975;1099;104217;-78
2022/01/13 09:22:28;;;;;;;36.47;15.40;;;;;;;-3.95;65.78;102062.02;125888;1099;104238;-80
2022/01/13 09:25:01;;;;;;;33.33;13.70;;;;;;;-3.88;65.88;102049.20;125915;1099;104137;-79
2022/01/13 09:27:34;;;;;;;40.00;14.57;;;;;;;-3.86;66.03;102040.02;126026;1099;104226;-77
2022/01/13 09:30:07;;;;;;;36.97;15.30;;;;;;;-3.84;65.83;102035.97;126056;1099;104592;-75
2022/01/13 09:32:39;;;;;;;33.80;14.43;;;;;;;-3.81;65.54;102036.34;125966;1099;104380;-79
2022/01/13 09:35:12;;;;;;;34.33;14.73;;;;;;;-3.72;65.80;102044.20;125880;1099;104309;-78
2022/01/13 09:37:46;;;;;;;37.27;15.77;;;;;;;-3.65;64.98;102056.09;126036;1098;104169;-78
2022/01/13 09:40:19;;;;;;;38.13;13.80;;;;;;;-3.58;65.79;102065.41;126154;1099;104155;-77
2022/01/13 09:43:01;;;;;;;37.73;14.33;;;;;;;-3.52;65.19;102061.94;125878;1099;104275;-77
2022/01/13 09:45:35;;;;;;;42.87;15.10;;;;;;;-3.43;65.68;102059.50;126012;1099;104281;-78
2022/01/13 09:48:08;;;;;;;33.10;13.87;;;;;;;-3.41;65.05;102062.25;126006;1099;104144;-77
2022/01/13 09:50:46;;;;;;;39.83;16.30;;;;;;;-3.37;64.57;102057.66;125943;1099;104143;-78
2022/01/13 09:53:22;;;;;;;35.33;13.70;;;;;;;-3.33;65.03;102057.28;125875;1099;104209;-78
2022/01/13 09:55:54;;;;;;;29.12;10.53;;;;;;;-3.23;65.09;102040.37;125921;1099;104165;-77
2022/01/13 09:58:35;;;;;;;30.00;12.27;;;;;;;-3.12;64.99;102051.13;125969;1099;102113;-78
2022/01/13 10:01:09;;;;;;;29.80;11.60;;;;;;;-3.16;64.29;102043.83;126079;1099;104216;-79
2022/01/13 10:03:42;;;;;;;29.10;11.53;;;;;;;-3.20;65.00;102030.45;125800;1099;105400;-81
2022/01/13 10:06:17;;;;;;;30.60;12.40;;;;;;;-3.21;64.96;102016.72;126044;1099;104277;-80
2022/01/13 10:08:51;;;;;;;31.97;13.10;;;;;;;-3.22;63.21;102025.15;126038;1099;104147;-77
2022/01/13 10:11:40;;;;;;;32.28;13.18;;;;;;;-3.13;63.64;102018.50;126171;1099;104159;-77
2022/01/13 10:16:22;;;;;;;31.90;12.57;;;;;;;-3.07;62.10;102036.24;126017;1099;104162;-78
2022/01/13 10:17:15;;;;;;;32.00;12.93;;;;;;;-3.15;63.06;102040.50;125833;1099;104156;-79
2022/01/13 10:19:57;;;;;;;33.50;13.10;;;;;;;-3.16;63.67;102030.98;126047;1099;104277;-81
2022/01/13 10:22:38;;;;;;;29.87;13.13;;;;;;;-3.14;63.82;102036.30;125135;1099;104431;-79
2022/01/13 10:25:36;;;;;;;31.63;12.93;;;;;;;-3.09;63.02;102060.84;125805;1099;102276;-79
2022/01/13 10:28:20;;;;;;;32.97;12.87;;;;;;;-3.04;63.23;102052.00;125092;1103;104635;-80
2022/01/13 10:30:56;;;;;;;23.57;10.45;;;;;;;-3.02;62.89;102042.84;125738;1099;102528;-80
2022/01/13 10:33:31;;;;;;;33.43;12.40;;;;;;;-2.97;61.03;102046.84;125107;1099;104168;-79
2022/01/13 10:36:14;;;;;;;34.70;12.97;;;;;;;-2.95;62.84;102041.88;125727;1099;104242;-79
2022/01/13 10:39:01;;;;;;;33.90;12.87;;;;;;;-2.96;59.78;102046.11;125898;1099;104289;-80
2022/01/13 10:41:48;;;;;;;32.07;14.07;;;;;;;-2.91;63.80;102033.80;125078;1102;104706;-79
2022/01/13 10:44:24;;;;;;;33.00;13.40;;;;;;;-2.91;63.40;102019.28;125080;1099;104249;-79
2022/01/13 10:47:03;;;;;;;31.63;12.90;;;;;;;-2.92;61.91;102017.45;125086;1099;104223;-80
2022/01/13 10:49:41;;;;;;;33.27;13.20;;;;;;;-3.02;63.21;101999.19;125056;1099;104307;-80
2022/01/13 10:52:27;;;;;;;35.13;14.63;;;;;;;-2.91;62.67;102006.44;125104;1102;102961;-78
2022/01/13 10:55:08;;;;;;;36.90;13.63;;;;;;;-2.90;62.77;101998.00;125741;1098;105383;-79
2022/01/13 10:57:42;;;;;;;32.33;14.10;;;;;;;-2.86;62.04;101996.69;125764;1099;104168;-79
2022/01/13 11:00:25;;;;;;;29.77;11.53;;;;;;;-2.82;62.69;101986.03;125763;1099;104195;-79
2022/01/13 11:03:07;;;;;;;32.40;14.23;;;;;;;-2.76;62.61;101979.02;125766;1099;104161;-80
2022/01/13 11:05:41;;;;;;;33.03;13.90;;;;;;;-2.70;63.13;101981.34;125760;1099;104220;-78
2022/01/13 11:08:30;;;;;;;36.07;14.67;;;;;;;-2.65;63.52;101975.08;125694;1099;104338;-81
2022/01/13 11:11:05;;;;;;;32.67;13.23;;;;;;;-2.58;62.40;101961.25;125749;1099;104272;-79
2022/01/13 11:13:49;;;;;;;34.43;14.27;;;;;;;-2.58;62.26;101951.87;125073;1099;104220;-78
2022/01/13 11:16:21;;;;;;;35.17;15.13;;;;;;;-2.57;62.71;101928.00;124869;1099;110922;-78
2022/01/13 11:18:54;;;;;;;32.07;14.03;;;;;;;-2.55;59.69;101923.94;124922;1102;104172;-79
2022/01/13 11:21:26;;;;;;;38.33;14.83;;;;;;;-2.54;62.06;101912.92;125034;1099;104248;-78
2022/01/13 11:24:00;;;;;;;33.57;14.10;;;;;;;-2.50;62.19;101898.74;124995;1099;104201;-80
2022/01/13 11:26:34;;;;;;;26.00;11.67;;;;;;;-2.44;63.06;101901.08;124922;1099;104271;-79
2022/01/13 11:29:08;;;;;;;33.90;14.80;;;;;;;-2.41;62.28;101909.13;126307;1099;102801;-79
2022/01/13 11:31:41;;;;;;;32.60;14.17;;;;;;;-2.35;63.63;101897.86;126280;1101;101576;-76
2022/01/13 11:34:18;;;;;;;34.50;14.30;;;;;;;-2.30;62.19;101889.74;126068;1099;103004;-78
2022/01/13 11:36:55;;;;;;;32.23;14.13;;;;;;;-2.27;61.62;101880.70;124826;1103;107907;-78
2022/01/13 11:39:41;;;;;;;31.90;13.67;;;;;;;-2.22;62.67;101866.67;125016;1099;104367;-79
2022/01/13 11:42:15;;;;;;;34.50;14.03;;;;;;;-2.13;61.74;101861.63;125352;1099;102583;-78
2022/01/13 11:45:12;;;;;;;30.13;12.17;;;;;;;-2.07;61.65;101864.85;125139;1099;104168;-78
2022/01/13 11:47:51;;;;;;;31.23;13.00;;;;;;;-2.01;61.41;101859.44;125718;1099;117989;-79